sensor_id;sensor_type;location;lat;lon;timestamp;P1;durP1;ratioP1;P2;durP2;ratioP2
81056;SDS011;70563;50.084;14.468;2024-01-30T00:01:39;80.97;;;20.50;;
81056;SDS011;70563;50.084;14.468;2024-01-30T00:04:04;65.70;;;19.75;;
81056;SDS011;70563;50.084;14.468;2024-01-30T00:06:30;114.10;;;23.63;;
81056;SDS011;70563;50.084;14.468;2024-01-30T00:08:56;69.78;;;19.55;;
81056;SDS011;70563;50.084;14.468;2024-01-30T00:11:21;89.28;;;20.77;;
81056;SDS011;70563;50.084;14.468;2024-01-30T00:13:47;54.25;;;20.67;;
81056;SDS011;70563;50.084;14.468;2024-01-30T00:16:22;51.67;;;20.67;;
81056;SDS011;70563;50.084;14.468;2024-01-30T00:18:49;82.22;;;20.08;;
81056;SDS011;70563;50.084;14.468;2024-01-30T00:21:15;73.13;;;22.92;;
81056;SDS011;70563;50.084;14.468;2024-01-30T00:23:40;75.38;;;20.45;;
81056;SDS011;70563;50.084;14.468;2024-01-30T00:26:06;70.28;;;21.40;;
81056;SDS011;70563;50.084;14.468;2024-01-30T00:28:31;65.22;;;19.08;;
81056;SDS011;70563;50.084;14.468;2024-01-30T00:30:57;64.20;;;17.92;;
81056;SDS011;70563;50.084;14.468;2024-01-30T00:33:22;54.17;;;18.65;;
81056;SDS011;70563;50.084;14.468;2024-01-30T00:35:47;47.97;;;19.02;;
81056;SDS011;70563;50.084;14.468;2024-01-30T00:38:13;58.78;;;18.20;;
81056;SDS011;70563;50.084;14.468;2024-01-30T00:40:38;51.05;;;17.08;;
81056;SDS011;70563;50.084;14.468;2024-01-30T00:43:03;52.63;;;19.20;;
81056;SDS011;70563;50.084;14.468;2024-01-30T00:45:29;56.42;;;22.63;;
81056;SDS011;70563;50.084;14.468;2024-01-30T00:47:54;53.95;;;18.73;;
81056;SDS011;70563;50.084;14.468;2024-01-30T00:50:19;62.85;;;18.30;;
81056;SDS011;70563;50.084;14.468;2024-01-30T00:52:45;49.15;;;18.23;;
81056;SDS011;70563;50.084;14.468;2024-01-30T00:55:11;94.93;;;19.65;;
81056;SDS011;70563;50.084;14.468;2024-01-30T00:57:36;59.38;;;17.98;;
81056;SDS011;70563;50.084;14.468;2024-01-30T01:00:02;69.03;;;20.80;;
81056;SDS011;70563;50.084;14.468;2024-01-30T01:02:28;50.65;;;18.00;;
81056;SDS011;70563;50.084;14.468;2024-01-30T01:04:54;78.30;;;18.25;;
81056;SDS011;70563;50.084;14.468;2024-01-30T01:07:19;63.63;;;19.13;;
81056;SDS011;70563;50.084;14.468;2024-01-30T01:09:44;71.75;;;18.70;;
81056;SDS011;70563;50.084;14.468;2024-01-30T01:12:10;46.10;;;17.33;;
81056;SDS011;70563;50.084;14.468;2024-01-30T01:14:35;58.17;;;17.48;;
81056;SDS011;70563;50.084;14.468;2024-01-30T01:17:01;47.03;;;17.52;;
81056;SDS011;70563;50.084;14.468;2024-01-30T01:19:26;56.97;;;17.63;;
81056;SDS011;70563;50.084;14.468;2024-01-30T01:21:52;39.70;;;16.27;;
81056;SDS011;70563;50.084;14.468;2024-01-30T01:24:18;45.45;;;16.05;;
81056;SDS011;70563;50.084;14.468;2024-01-30T01:26:43;78.78;;;19.35;;
81056;SDS011;70563;50.084;14.468;2024-01-30T01:29:09;79.57;;;18.30;;
81056;SDS011;70563;50.084;14.468;2024-01-30T01:31:37;45.15;;;16.77;;
81056;SDS011;70563;50.084;14.468;2024-01-30T01:34:10;53.60;;;18.73;;
81056;SDS011;70563;50.084;14.468;2024-01-30T01:36:36;38.38;;;18.48;;
81056;SDS011;70563;50.084;14.468;2024-01-30T01:39:01;46.42;;;17.63;;
81056;SDS011;70563;50.084;14.468;2024-01-30T01:41:33;53.25;;;17.13;;
81056;SDS011;70563;50.084;14.468;2024-01-30T01:43:59;54.15;;;18.30;;
81056;SDS011;70563;50.084;14.468;2024-01-30T01:46:29;56.95;;;18.30;;
81056;SDS011;70563;50.084;14.468;2024-01-30T01:48:57;46.78;;;15.85;;
81056;SDS011;70563;50.084;14.468;2024-01-30T01:51:24;45.55;;;17.02;;
81056;SDS011;70563;50.084;14.468;2024-01-30T01:53:52;54.72;;;19.40;;
81056;SDS011;70563;50.084;14.468;2024-01-30T01:56:18;52.25;;;17.80;;
81056;SDS011;70563;50.084;14.468;2024-01-30T01:58:44;63.90;;;20.13;;
81056;SDS011;70563;50.084;14.468;2024-01-30T02:01:12;56.30;;;17.30;;
81056;SDS011;70563;50.084;14.468;2024-01-30T02:03:39;53.17;;;19.15;;
81056;SDS011;70563;50.084;14.468;2024-01-30T02:06:06;72.78;;;17.08;;
81056;SDS011;70563;50.084;14.468;2024-01-30T02:08:31;93.50;;;20.98;;
81056;SDS011;70563;50.084;14.468;2024-01-30T02:10:57;58.60;;;18.52;;
81056;SDS011;70563;50.084;14.468;2024-01-30T02:13:22;60.50;;;16.20;;
81056;SDS011;70563;50.084;14.468;2024-01-30T02:15:51;50.95;;;18.02;;
81056;SDS011;70563;50.084;14.468;2024-01-30T02:18:16;52.13;;;17.33;;
81056;SDS011;70563;50.084;14.468;2024-01-30T02:20:42;57.60;;;17.67;;
81056;SDS011;70563;50.084;14.468;2024-01-30T02:23:09;58.97;;;17.23;;
81056;SDS011;70563;50.084;14.468;2024-01-30T02:25:38;99.90;;;20.02;;
81056;SDS011;70563;50.084;14.468;2024-01-30T02:28:09;49.78;;;16.02;;
81056;SDS011;70563;50.084;14.468;2024-01-30T02:30:35;61.13;;;18.95;;
81056;SDS011;70563;50.084;14.468;2024-01-30T02:33:01;50.25;;;16.85;;
81056;SDS011;70563;50.084;14.468;2024-01-30T02:35:26;61.50;;;17.38;;
81056;SDS011;70563;50.084;14.468;2024-01-30T02:37:51;52.80;;;18.75;;
81056;SDS011;70563;50.084;14.468;2024-01-30T02:40:17;75.15;;;20.77;;
81056;SDS011;70563;50.084;14.468;2024-01-30T02:42:42;70.85;;;17.20;;
81056;SDS011;70563;50.084;14.468;2024-01-30T02:45:08;65.88;;;18.02;;
81056;SDS011;70563;50.084;14.468;2024-01-30T02:47:34;55.53;;;16.92;;
81056;SDS011;70563;50.084;14.468;2024-01-30T02:49:59;93.00;;;18.10;;
81056;SDS011;70563;50.084;14.468;2024-01-30T02:52:25;53.75;;;16.83;;
81056;SDS011;70563;50.084;14.468;2024-01-30T02:54:50;65.57;;;18.50;;
81056;SDS011;70563;50.084;14.468;2024-01-30T02:57:15;84.70;;;20.30;;
81056;SDS011;70563;50.084;14.468;2024-01-30T02:59:41;51.45;;;15.95;;
81056;SDS011;70563;50.084;14.468;2024-01-30T03:02:07;63.30;;;18.05;;
81056;SDS011;70563;50.084;14.468;2024-01-30T03:04:32;60.50;;;18.52;;
81056;SDS011;70563;50.084;14.468;2024-01-30T03:06:57;51.88;;;17.17;;
81056;SDS011;70563;50.084;14.468;2024-01-30T03:09:23;53.92;;;17.50;;
81056;SDS011;70563;50.084;14.468;2024-01-30T03:11:48;61.08;;;17.80;;
81056;SDS011;70563;50.084;14.468;2024-01-30T03:14:13;54.53;;;17.85;;
81056;SDS011;70563;50.084;14.468;2024-01-30T03:16:39;69.68;;;18.20;;
81056;SDS011;70563;50.084;14.468;2024-01-30T03:19:05;82.90;;;17.63;;
81056;SDS011;70563;50.084;14.468;2024-01-30T03:21:32;47.65;;;17.42;;
81056;SDS011;70563;50.084;14.468;2024-01-30T03:23:58;54.67;;;16.77;;
81056;SDS011;70563;50.084;14.468;2024-01-30T03:26:24;59.20;;;16.33;;
81056;SDS011;70563;50.084;14.468;2024-01-30T03:28:49;70.60;;;17.20;;
81056;SDS011;70563;50.084;14.468;2024-01-30T03:31:15;95.55;;;18.00;;
81056;SDS011;70563;50.084;14.468;2024-01-30T03:33:41;43.53;;;15.82;;
81056;SDS011;70563;50.084;14.468;2024-01-30T03:36:07;55.80;;;18.45;;
81056;SDS011;70563;50.084;14.468;2024-01-30T03:38:33;42.50;;;15.52;;
81056;SDS011;70563;50.084;14.468;2024-01-30T03:40:58;54.63;;;17.20;;
81056;SDS011;70563;50.084;14.468;2024-01-30T03:43:24;53.17;;;16.10;;
81056;SDS011;70563;50.084;14.468;2024-01-30T03:45:49;51.60;;;16.42;;
81056;SDS011;70563;50.084;14.468;2024-01-30T03:48:14;42.45;;;16.70;;
81056;SDS011;70563;50.084;14.468;2024-01-30T03:50:40;42.97;;;17.38;;
81056;SDS011;70563;50.084;14.468;2024-01-30T03:53:05;64.90;;;16.38;;
81056;SDS011;70563;50.084;14.468;2024-01-30T03:55:31;63.85;;;15.00;;
81056;SDS011;70563;50.084;14.468;2024-01-30T03:57:56;62.17;;;15.75;;
81056;SDS011;70563;50.084;14.468;2024-01-30T04:00:21;55.85;;;15.82;;
81056;SDS011;70563;50.084;14.468;2024-01-30T04:02:47;63.15;;;16.35;;
81056;SDS011;70563;50.084;14.468;2024-01-30T04:05:12;49.88;;;13.85;;
81056;SDS011;70563;50.084;14.468;2024-01-30T04:07:37;60.33;;;16.88;;
81056;SDS011;70563;50.084;14.468;2024-01-30T04:10:03;45.30;;;14.65;;
81056;SDS011;70563;50.084;14.468;2024-01-30T04:12:30;64.28;;;16.42;;
81056;SDS011;70563;50.084;14.468;2024-01-30T04:14:56;59.50;;;16.95;;
81056;SDS011;70563;50.084;14.468;2024-01-30T04:17:22;45.90;;;16.65;;
81056;SDS011;70563;50.084;14.468;2024-01-30T04:19:47;54.35;;;15.50;;
81056;SDS011;70563;50.084;14.468;2024-01-30T04:22:12;51.22;;;16.70;;
81056;SDS011;70563;50.084;14.468;2024-01-30T04:24:38;46.42;;;14.52;;
81056;SDS011;70563;50.084;14.468;2024-01-30T04:27:03;51.20;;;15.15;;
81056;SDS011;70563;50.084;14.468;2024-01-30T04:29:29;51.50;;;14.18;;
81056;SDS011;70563;50.084;14.468;2024-01-30T04:31:54;44.53;;;15.90;;
81056;SDS011;70563;50.084;14.468;2024-01-30T04:34:19;39.13;;;14.82;;
81056;SDS011;70563;50.084;14.468;2024-01-30T04:36:45;38.53;;;14.45;;
81056;SDS011;70563;50.084;14.468;2024-01-30T04:39:11;47.28;;;16.42;;
81056;SDS011;70563;50.084;14.468;2024-01-30T04:41:37;46.08;;;16.38;;
81056;SDS011;70563;50.084;14.468;2024-01-30T04:44:03;38.97;;;16.58;;
81056;SDS011;70563;50.084;14.468;2024-01-30T04:46:28;34.35;;;15.90;;
81056;SDS011;70563;50.084;14.468;2024-01-30T04:48:54;41.40;;;16.50;;
81056;SDS011;70563;50.084;14.468;2024-01-30T04:51:19;39.90;;;15.38;;
81056;SDS011;70563;50.084;14.468;2024-01-30T04:53:44;39.40;;;15.82;;
81056;SDS011;70563;50.084;14.468;2024-01-30T04:56:10;47.72;;;15.35;;
81056;SDS011;70563;50.084;14.468;2024-01-30T04:58:35;41.10;;;16.15;;
81056;SDS011;70563;50.084;14.468;2024-01-30T05:01:01;33.95;;;15.45;;
81056;SDS011;70563;50.084;14.468;2024-01-30T05:03:27;51.78;;;15.43;;
81056;SDS011;70563;50.084;14.468;2024-01-30T05:05:52;43.42;;;14.93;;
81056;SDS011;70563;50.084;14.468;2024-01-30T05:08:18;53.85;;;16.00;;
81056;SDS011;70563;50.084;14.468;2024-01-30T05:10:43;48.30;;;15.65;;
81056;SDS011;70563;50.084;14.468;2024-01-30T05:13:08;47.63;;;15.60;;
81056;SDS011;70563;50.084;14.468;2024-01-30T05:15:34;42.17;;;16.08;;
81056;SDS011;70563;50.084;14.468;2024-01-30T05:17:59;40.45;;;14.82;;
81056;SDS011;70563;50.084;14.468;2024-01-30T05:20:24;45.45;;;15.63;;
81056;SDS011;70563;50.084;14.468;2024-01-30T05:22:53;36.95;;;15.70;;
81056;SDS011;70563;50.084;14.468;2024-01-30T05:25:18;61.80;;;17.25;;
81056;SDS011;70563;50.084;14.468;2024-01-30T05:27:44;47.60;;;14.73;;
81056;SDS011;70563;50.084;14.468;2024-01-30T05:30:09;45.20;;;16.25;;
81056;SDS011;70563;50.084;14.468;2024-01-30T05:32:35;38.47;;;14.50;;
81056;SDS011;70563;50.084;14.468;2024-01-30T05:35:00;69.75;;;16.05;;
81056;SDS011;70563;50.084;14.468;2024-01-30T05:37:26;52.97;;;16.52;;
81056;SDS011;70563;50.084;14.468;2024-01-30T05:39:51;66.35;;;15.35;;
81056;SDS011;70563;50.084;14.468;2024-01-30T05:42:17;59.67;;;16.95;;
81056;SDS011;70563;50.084;14.468;2024-01-30T05:44:42;47.67;;;16.90;;
81056;SDS011;70563;50.084;14.468;2024-01-30T05:47:08;65.63;;;17.42;;
81056;SDS011;70563;50.084;14.468;2024-01-30T05:49:33;59.80;;;16.25;;
81056;SDS011;70563;50.084;14.468;2024-01-30T05:51:59;42.47;;;14.48;;
81056;SDS011;70563;50.084;14.468;2024-01-30T05:54:27;44.75;;;15.57;;
81056;SDS011;70563;50.084;14.468;2024-01-30T05:56:52;39.88;;;15.15;;
81056;SDS011;70563;50.084;14.468;2024-01-30T05:59:17;42.38;;;17.00;;
81056;SDS011;70563;50.084;14.468;2024-01-30T06:01:46;49.10;;;15.90;;
81056;SDS011;70563;50.084;14.468;2024-01-30T06:04:12;60.80;;;16.15;;
81056;SDS011;70563;50.084;14.468;2024-01-30T06:06:38;40.25;;;16.08;;
81056;SDS011;70563;50.084;14.468;2024-01-30T06:09:03;76.30;;;16.42;;
81056;SDS011;70563;50.084;14.468;2024-01-30T06:11:28;57.28;;;15.60;;
81056;SDS011;70563;50.084;14.468;2024-01-30T06:13:54;40.63;;;16.13;;
81056;SDS011;70563;50.084;14.468;2024-01-30T06:16:19;62.95;;;17.25;;
81056;SDS011;70563;50.084;14.468;2024-01-30T06:18:46;62.08;;;16.83;;
81056;SDS011;70563;50.084;14.468;2024-01-30T06:21:12;60.55;;;16.50;;
81056;SDS011;70563;50.084;14.468;2024-01-30T06:23:38;54.03;;;15.95;;
81056;SDS011;70563;50.084;14.468;2024-01-30T06:26:03;36.38;;;15.27;;
81056;SDS011;70563;50.084;14.468;2024-01-30T06:28:29;43.72;;;15.70;;
81056;SDS011;70563;50.084;14.468;2024-01-30T06:30:55;43.15;;;14.60;;
81056;SDS011;70563;50.084;14.468;2024-01-30T06:33:20;35.33;;;15.13;;
81056;SDS011;70563;50.084;14.468;2024-01-30T06:35:46;51.13;;;16.10;;
81056;SDS011;70563;50.084;14.468;2024-01-30T06:38:11;35.53;;;15.68;;
81056;SDS011;70563;50.084;14.468;2024-01-30T06:40:38;45.25;;;15.30;;
81056;SDS011;70563;50.084;14.468;2024-01-30T06:43:04;39.85;;;15.13;;
81056;SDS011;70563;50.084;14.468;2024-01-30T06:45:30;53.13;;;16.75;;
81056;SDS011;70563;50.084;14.468;2024-01-30T06:47:55;42.78;;;16.10;;
81056;SDS011;70563;50.084;14.468;2024-01-30T06:50:20;55.60;;;15.38;;
81056;SDS011;70563;50.084;14.468;2024-01-30T06:52:46;41.88;;;13.98;;
81056;SDS011;70563;50.084;14.468;2024-01-30T06:55:11;32.25;;;12.93;;
81056;SDS011;70563;50.084;14.468;2024-01-30T06:57:37;40.78;;;15.35;;
81056;SDS011;70563;50.084;14.468;2024-01-30T07:00:02;39.30;;;14.85;;
81056;SDS011;70563;50.084;14.468;2024-01-30T07:02:28;44.15;;;14.60;;
81056;SDS011;70563;50.084;14.468;2024-01-30T07:04:54;33.92;;;14.40;;
81056;SDS011;70563;50.084;14.468;2024-01-30T07:07:20;34.95;;;14.77;;
81056;SDS011;70563;50.084;14.468;2024-01-30T07:09:45;44.05;;;16.15;;
81056;SDS011;70563;50.084;14.468;2024-01-30T07:12:10;38.55;;;14.70;;
81056;SDS011;70563;50.084;14.468;2024-01-30T07:14:36;48.42;;;16.00;;
81056;SDS011;70563;50.084;14.468;2024-01-30T07:17:01;38.85;;;15.43;;
81056;SDS011;70563;50.084;14.468;2024-01-30T07:19:27;36.85;;;14.57;;
81056;SDS011;70563;50.084;14.468;2024-01-30T07:21:52;37.35;;;14.50;;
81056;SDS011;70563;50.084;14.468;2024-01-30T07:24:17;41.50;;;15.63;;
81056;SDS011;70563;50.084;14.468;2024-01-30T07:26:43;38.42;;;14.07;;
81056;SDS011;70563;50.084;14.468;2024-01-30T07:29:08;40.25;;;14.52;;
81056;SDS011;70563;50.084;14.468;2024-01-30T07:31:33;42.38;;;16.65;;
81056;SDS011;70563;50.084;14.468;2024-01-30T07:33:59;42.95;;;14.23;;
81056;SDS011;70563;50.084;14.468;2024-01-30T07:36:24;34.60;;;16.20;;
81056;SDS011;70563;50.084;14.468;2024-01-30T07:38:49;38.20;;;15.85;;
81056;SDS011;70563;50.084;14.468;2024-01-30T07:41:15;40.15;;;15.23;;
81056;SDS011;70563;50.084;14.468;2024-01-30T07:43:40;51.65;;;17.58;;
81056;SDS011;70563;50.084;14.468;2024-01-30T07:46:05;38.55;;;14.38;;
81056;SDS011;70563;50.084;14.468;2024-01-30T07:48:32;29.42;;;12.88;;
81056;SDS011;70563;50.084;14.468;2024-01-30T07:50:59;34.45;;;13.50;;
81056;SDS011;70563;50.084;14.468;2024-01-30T07:53:24;34.85;;;15.05;;
81056;SDS011;70563;50.084;14.468;2024-01-30T07:55:50;31.17;;;14.43;;
81056;SDS011;70563;50.084;14.468;2024-01-30T07:58:15;34.88;;;15.57;;
81056;SDS011;70563;50.084;14.468;2024-01-30T08:00:41;33.47;;;12.80;;
81056;SDS011;70563;50.084;14.468;2024-01-30T08:03:06;34.03;;;14.65;;
81056;SDS011;70563;50.084;14.468;2024-01-30T08:05:32;34.53;;;14.75;;
81056;SDS011;70563;50.084;14.468;2024-01-30T08:07:57;36.33;;;15.13;;
81056;SDS011;70563;50.084;14.468;2024-01-30T08:10:22;37.33;;;14.50;;
81056;SDS011;70563;50.084;14.468;2024-01-30T08:12:48;33.50;;;14.70;;
81056;SDS011;70563;50.084;14.468;2024-01-30T08:15:14;30.77;;;14.57;;
81056;SDS011;70563;50.084;14.468;2024-01-30T08:17:39;38.80;;;15.18;;
81056;SDS011;70563;50.084;14.468;2024-01-30T08:20:05;34.00;;;13.93;;
81056;SDS011;70563;50.084;14.468;2024-01-30T08:22:32;36.67;;;15.50;;
81056;SDS011;70563;50.084;14.468;2024-01-30T08:24:57;32.63;;;14.57;;
81056;SDS011;70563;50.084;14.468;2024-01-30T08:27:22;32.83;;;14.35;;
81056;SDS011;70563;50.084;14.468;2024-01-30T08:29:48;34.38;;;14.93;;
81056;SDS011;70563;50.084;14.468;2024-01-30T08:32:15;35.92;;;16.02;;
81056;SDS011;70563;50.084;14.468;2024-01-30T08:34:40;33.67;;;14.65;;
81056;SDS011;70563;50.084;14.468;2024-01-30T08:37:07;34.30;;;15.23;;
81056;SDS011;70563;50.084;14.468;2024-01-30T08:39:32;37.65;;;16.27;;
81056;SDS011;70563;50.084;14.468;2024-01-30T08:41:58;36.45;;;15.27;;
81056;SDS011;70563;50.084;14.468;2024-01-30T08:44:23;35.15;;;15.60;;
81056;SDS011;70563;50.084;14.468;2024-01-30T08:46:48;36.85;;;16.70;;
81056;SDS011;70563;50.084;14.468;2024-01-30T08:49:16;34.95;;;16.90;;
81056;SDS011;70563;50.084;14.468;2024-01-30T08:51:41;30.48;;;14.93;;
81056;SDS011;70563;50.084;14.468;2024-01-30T08:54:06;41.75;;;17.20;;
81056;SDS011;70563;50.084;14.468;2024-01-30T08:56:32;43.20;;;14.85;;
81056;SDS011;70563;50.084;14.468;2024-01-30T08:58:57;34.58;;;16.67;;
81056;SDS011;70563;50.084;14.468;2024-01-30T09:01:23;46.17;;;17.20;;
81056;SDS011;70563;50.084;14.468;2024-01-30T09:03:48;39.25;;;17.42;;
81056;SDS011;70563;50.084;14.468;2024-01-30T09:06:13;43.38;;;19.48;;
81056;SDS011;70563;50.084;14.468;2024-01-30T09:08:39;37.78;;;15.30;;
81056;SDS011;70563;50.084;14.468;2024-01-30T09:11:14;48.17;;;18.63;;
81056;SDS011;70563;50.084;14.468;2024-01-30T09:13:40;32.20;;;15.45;;
81056;SDS011;70563;50.084;14.468;2024-01-30T09:16:06;43.10;;;18.17;;
81056;SDS011;70563;50.084;14.468;2024-01-30T09:18:32;43.20;;;16.98;;
81056;SDS011;70563;50.084;14.468;2024-01-30T09:20:57;39.08;;;17.63;;
81056;SDS011;70563;50.084;14.468;2024-01-30T09:23:23;42.03;;;18.15;;
81056;SDS011;70563;50.084;14.468;2024-01-30T09:25:48;42.28;;;18.95;;
81056;SDS011;70563;50.084;14.468;2024-01-30T09:28:14;46.20;;;19.50;;
81056;SDS011;70563;50.084;14.468;2024-01-30T09:30:39;44.30;;;18.00;;
81056;SDS011;70563;50.084;14.468;2024-01-30T09:33:05;39.70;;;16.67;;
81056;SDS011;70563;50.084;14.468;2024-01-30T09:35:31;38.38;;;17.13;;
81056;SDS011;70563;50.084;14.468;2024-01-30T09:37:57;47.25;;;19.08;;
81056;SDS011;70563;50.084;14.468;2024-01-30T09:40:22;44.85;;;21.00;;
81056;SDS011;70563;50.084;14.468;2024-01-30T09:42:48;46.47;;;18.58;;
81056;SDS011;70563;50.084;14.468;2024-01-30T09:45:15;47.38;;;20.10;;
81056;SDS011;70563;50.084;14.468;2024-01-30T09:47:43;53.20;;;20.15;;
81056;SDS011;70563;50.084;14.468;2024-01-30T09:50:13;48.53;;;20.65;;
81056;SDS011;70563;50.084;14.468;2024-01-30T09:52:39;51.35;;;20.20;;
81056;SDS011;70563;50.084;14.468;2024-01-30T09:55:06;53.65;;;21.83;;
81056;SDS011;70563;50.084;14.468;2024-01-30T09:57:32;50.78;;;19.70;;
81056;SDS011;70563;50.084;14.468;2024-01-30T09:59:58;51.55;;;21.95;;
81056;SDS011;70563;50.084;14.468;2024-01-30T10:02:23;51.00;;;19.50;;
81056;SDS011;70563;50.084;14.468;2024-01-30T10:04:49;40.45;;;18.52;;
81056;SDS011;70563;50.084;14.468;2024-01-30T10:07:15;41.85;;;17.60;;
81056;SDS011;70563;50.084;14.468;2024-01-30T10:09:41;41.33;;;17.80;;
81056;SDS011;70563;50.084;14.468;2024-01-30T10:12:07;44.85;;;19.27;;
81056;SDS011;70563;50.084;14.468;2024-01-30T10:14:33;37.65;;;17.55;;
81056;SDS011;70563;50.084;14.468;2024-01-30T10:16:59;44.28;;;19.88;;
81056;SDS011;70563;50.084;14.468;2024-01-30T10:19:26;42.05;;;19.25;;
81056;SDS011;70563;50.084;14.468;2024-01-30T10:21:52;40.28;;;19.25;;
81056;SDS011;70563;50.084;14.468;2024-01-30T10:24:18;37.38;;;17.70;;
81056;SDS011;70563;50.084;14.468;2024-01-30T10:26:43;39.08;;;19.10;;
81056;SDS011;70563;50.084;14.468;2024-01-30T10:29:09;48.33;;;20.95;;
81056;SDS011;70563;50.084;14.468;2024-01-30T10:31:34;39.33;;;19.65;;
81056;SDS011;70563;50.084;14.468;2024-01-30T10:34:00;40.92;;;19.17;;
81056;SDS011;70563;50.084;14.468;2024-01-30T10:36:28;22.08;;;12.13;;
81056;SDS011;70563;50.084;14.468;2024-01-30T10:38:59;35.03;;;17.83;;
81056;SDS011;70563;50.084;14.468;2024-01-30T10:41:26;35.63;;;17.55;;
81056;SDS011;70563;50.084;14.468;2024-01-30T10:44:02;32.05;;;14.65;;
81056;SDS011;70563;50.084;14.468;2024-01-30T10:46:33;29.08;;;14.52;;
81056;SDS011;70563;50.084;14.468;2024-01-30T10:49:00;22.98;;;11.40;;
81056;SDS011;70563;50.084;14.468;2024-01-30T10:51:28;27.73;;;11.63;;
81056;SDS011;70563;50.084;14.468;2024-01-30T10:53:54;22.70;;;11.43;;
81056;SDS011;70563;50.084;14.468;2024-01-30T10:56:21;41.88;;;17.20;;
81056;SDS011;70563;50.084;14.468;2024-01-30T10:58:55;34.35;;;16.25;;
81056;SDS011;70563;50.084;14.468;2024-01-30T11:01:24;32.75;;;14.73;;
81056;SDS011;70563;50.084;14.468;2024-01-30T11:03:54;29.30;;;13.63;;
81056;SDS011;70563;50.084;14.468;2024-01-30T11:06:24;28.17;;;11.77;;
81056;SDS011;70563;50.084;14.468;2024-01-30T11:09:00;35.13;;;15.23;;
81056;SDS011;70563;50.084;14.468;2024-01-30T11:11:46;32.80;;;16.48;;
81056;SDS011;70563;50.084;14.468;2024-01-30T11:14:15;35.40;;;15.98;;
81056;SDS011;70563;50.084;14.468;2024-01-30T11:16:41;23.45;;;11.05;;
81056;SDS011;70563;50.084;14.468;2024-01-30T11:19:10;30.60;;;13.07;;
81056;SDS011;70563;50.084;14.468;2024-01-30T11:21:41;40.30;;;16.52;;
81056;SDS011;70563;50.084;14.468;2024-01-30T11:24:07;33.40;;;14.23;;
81056;SDS011;70563;50.084;14.468;2024-01-30T11:26:33;31.85;;;16.35;;
81056;SDS011;70563;50.084;14.468;2024-01-30T11:28:59;32.00;;;14.50;;
81056;SDS011;70563;50.084;14.468;2024-01-30T11:31:29;27.13;;;12.70;;
81056;SDS011;70563;50.084;14.468;2024-01-30T11:33:55;31.00;;;14.10;;
81056;SDS011;70563;50.084;14.468;2024-01-30T11:36:23;33.13;;;13.80;;
81056;SDS011;70563;50.084;14.468;2024-01-30T11:38:51;35.83;;;16.45;;
81056;SDS011;70563;50.084;14.468;2024-01-30T11:41:17;28.25;;;14.38;;
81056;SDS011;70563;50.084;14.468;2024-01-30T11:43:43;28.55;;;14.02;;
81056;SDS011;70563;50.084;14.468;2024-01-30T11:46:16;29.70;;;15.27;;
81056;SDS011;70563;50.084;14.468;2024-01-30T11:48:42;26.10;;;12.43;;
81056;SDS011;70563;50.084;14.468;2024-01-30T11:51:07;28.42;;;13.63;;
81056;SDS011;70563;50.084;14.468;2024-01-30T11:53:32;33.65;;;14.82;;
81056;SDS011;70563;50.084;14.468;2024-01-30T11:55:58;28.23;;;14.30;;
81056;SDS011;70563;50.084;14.468;2024-01-30T11:58:26;31.13;;;14.50;;
81056;SDS011;70563;50.084;14.468;2024-01-30T12:00:55;34.42;;;15.48;;
81056;SDS011;70563;50.084;14.468;2024-01-30T12:03:21;27.67;;;13.25;;
81056;SDS011;70563;50.084;14.468;2024-01-30T12:05:47;35.88;;;15.23;;
81056;SDS011;70563;50.084;14.468;2024-01-30T12:08:20;30.33;;;14.23;;
81056;SDS011;70563;50.084;14.468;2024-01-30T12:10:45;28.35;;;13.60;;
81056;SDS011;70563;50.084;14.468;2024-01-30T12:13:11;27.27;;;13.20;;
81056;SDS011;70563;50.084;14.468;2024-01-30T12:15:37;30.10;;;14.23;;
81056;SDS011;70563;50.084;14.468;2024-01-30T12:18:03;24.45;;;13.15;;
81056;SDS011;70563;50.084;14.468;2024-01-30T12:20:30;35.28;;;15.80;;
81056;SDS011;70563;50.084;14.468;2024-01-30T12:22:56;31.95;;;15.45;;
81056;SDS011;70563;50.084;14.468;2024-01-30T12:25:21;35.25;;;15.35;;
81056;SDS011;70563;50.084;14.468;2024-01-30T12:27:48;25.65;;;12.18;;
81056;SDS011;70563;50.084;14.468;2024-01-30T12:30:15;33.63;;;15.68;;
81056;SDS011;70563;50.084;14.468;2024-01-30T12:32:41;28.48;;;12.25;;
81056;SDS011;70563;50.084;14.468;2024-01-30T12:35:09;30.70;;;14.68;;
81056;SDS011;70563;50.084;14.468;2024-01-30T12:37:39;33.55;;;15.80;;
81056;SDS011;70563;50.084;14.468;2024-01-30T12:40:06;32.53;;;14.30;;
81056;SDS011;70563;50.084;14.468;2024-01-30T12:42:33;33.17;;;15.60;;
81056;SDS011;70563;50.084;14.468;2024-01-30T12:44:58;36.60;;;15.95;;
81056;SDS011;70563;50.084;14.468;2024-01-30T12:47:24;31.88;;;16.20;;
81056;SDS011;70563;50.084;14.468;2024-01-30T12:49:49;29.85;;;14.32;;
81056;SDS011;70563;50.084;14.468;2024-01-30T12:52:18;28.38;;;13.30;;
81056;SDS011;70563;50.084;14.468;2024-01-30T12:54:44;31.98;;;15.32;;
81056;SDS011;70563;50.084;14.468;2024-01-30T12:57:10;30.40;;;16.45;;
81056;SDS011;70563;50.084;14.468;2024-01-30T12:59:35;33.30;;;15.57;;
81056;SDS011;70563;50.084;14.468;2024-01-30T13:02:01;33.35;;;15.77;;
81056;SDS011;70563;50.084;14.468;2024-01-30T13:04:28;32.38;;;16.38;;
81056;SDS011;70563;50.084;14.468;2024-01-30T13:06:54;31.02;;;15.68;;
81056;SDS011;70563;50.084;14.468;2024-01-30T13:09:19;24.83;;;12.30;;
81056;SDS011;70563;50.084;14.468;2024-01-30T13:11:45;25.02;;;12.38;;
81056;SDS011;70563;50.084;14.468;2024-01-30T13:14:10;33.88;;;15.40;;
81056;SDS011;70563;50.084;14.468;2024-01-30T13:16:35;37.38;;;15.68;;
81056;SDS011;70563;50.084;14.468;2024-01-30T13:19:01;31.55;;;15.40;;
81056;SDS011;70563;50.084;14.468;2024-01-30T13:21:27;30.63;;;14.68;;
81056;SDS011;70563;50.084;14.468;2024-01-30T13:23:52;27.17;;;14.60;;
81056;SDS011;70563;50.084;14.468;2024-01-30T13:26:19;29.17;;;15.38;;
81056;SDS011;70563;50.084;14.468;2024-01-30T13:28:45;28.95;;;14.32;;
81056;SDS011;70563;50.084;14.468;2024-01-30T13:31:10;13.55;;;10.32;;
81056;SDS011;70563;50.084;14.468;2024-01-30T13:33:36;32.80;;;17.25;;
81056;SDS011;70563;50.084;14.468;2024-01-30T13:36:01;29.67;;;16.00;;
81056;SDS011;70563;50.084;14.468;2024-01-30T13:38:27;28.05;;;13.50;;
81056;SDS011;70563;50.084;14.468;2024-01-30T13:40:52;32.95;;;15.30;;
81056;SDS011;70563;50.084;14.468;2024-01-30T13:43:18;27.63;;;14.48;;
81056;SDS011;70563;50.084;14.468;2024-01-30T13:45:43;26.85;;;12.27;;
81056;SDS011;70563;50.084;14.468;2024-01-30T13:48:09;26.75;;;12.65;;
81056;SDS011;70563;50.084;14.468;2024-01-30T13:50:34;28.58;;;13.77;;
81056;SDS011;70563;50.084;14.468;2024-01-30T13:53:00;26.88;;;13.05;;
81056;SDS011;70563;50.084;14.468;2024-01-30T13:55:25;27.00;;;13.57;;
81056;SDS011;70563;50.084;14.468;2024-01-30T13:57:50;28.25;;;15.00;;
81056;SDS011;70563;50.084;14.468;2024-01-30T14:00:16;29.05;;;13.70;;
81056;SDS011;70563;50.084;14.468;2024-01-30T14:02:42;29.98;;;15.07;;